Disclaimer

Please do not use the information listed here in-flight or in-navigation, as they are not provided to us by the airports but are provided by volunteers, so they might be outdated.

Search


Regions


Airport information page

Radio informations:
Tower (TWR) - 118.8 MHz
Ground (GND) - 121.75 MHz
Automatic Terminal Information Service (ATIS) - 128.55 MHz

Airport informations:
Latitude: 40° 53' 54.79" N
Longitude: 029° 18' 33.19" E
Elevation: 312 feet - 95 meters
Operating hours: 24 hour operations
Operating agency: Civil government, landing fees and diplomatic clearance may be required
Timezone: UTC+2(+3DT) - Dates notified by NOTAM
Fuel: Jet A1, without icing nhibitor.

Aviation Gasoline (AVGAS), octane unknown.

Runway information:
06/24 - 9843 x 148 feet< - >3000 x 45 meters

Recent METARs:
LTFJ 180620Z 03012KT 9999 SCT040 BKN090 10/08 Q1023 NOSIG RMK RWY24 03010KT
LTFJ 180650Z 04011KT 9999 SCT040 BKN090 11/08 Q1023 NOSIG RMK RWY24 04009KT
LTFJ 180720Z 04011KT 9999 SCT040 BKN090 11/08 Q1022 NOSIG RMK RWY24 03011KT

Airport on the map: